Time;durP1;ratioP1;P1;durP2;ratioP2;P2;SDS_P1;SDS_P2;PMS_P1;PMS_P2;Temp;Humidity;BMP_temperature;BMP_pressure;BME280_temperature;BME280_humidity;BME280_pressure;Samples;Min_cycle;Max_cycle;Signal;HPM_P1;HPM_P2
2022/01/01 00:04:01;;;;;;;4.50;4.10;;;13.30;45.10;;;;;;10349112;28;20781;-68
2022/01/01 00:09:05;;;;;;;5.13;4.57;;;13.20;45.20;;;;;;10350216;28;20237;-68
2022/01/01 00:14:10;;;;;;;4.40;4.00;;;13.20;45.20;;;;;;10351559;28;20227;-68
2022/01/01 00:19:13;;;;;;;4.37;3.97;;;13.20;45.30;;;;;;10353162;28;20226;-68
2022/01/01 00:24:16;;;;;;;4.40;4.00;;;13.20;45.50;;;;;;10351728;28;20237;-68
2022/01/01 00:29:21;;;;;;;4.80;4.30;;;13.20;45.40;;;;;;10350910;28;20390;-68
2022/01/01 00:34:24;;;;;;;4.80;4.20;;;13.20;45.40;;;;;;10348513;28;20230;-68
2022/01/01 00:39:28;;;;;;;4.77;4.00;;;13.20;45.50;;;;;;10351589;28;20234;-68
2022/01/01 00:44:32;;;;;;;5.10;4.00;;;13.20;45.50;;;;;;10351443;28;20229;-68
2022/01/01 00:49:35;;;;;;;4.40;4.00;;;13.20;45.40;;;;;;10346600;28;20597;-68
2022/01/01 00:54:39;;;;;;;4.60;4.20;;;13.20;45.50;;;;;;10349164;28;21848;-69
2022/01/01 00:59:43;;;;;;;4.73;4.33;;;13.20;45.50;;;;;;10349823;28;20237;-68
2022/01/01 01:04:46;;;;;;;4.83;4.30;;;13.30;45.60;;;;;;10349264;28;20229;-68
2022/01/01 01:09:49;;;;;;;4.67;4.27;;;13.30;45.70;;;;;;10355758;28;20222;-68
2022/01/01 01:14:55;;;;;;;6.00;4.17;;;13.30;45.70;;;;;;10345806;28;20310;-68
2022/01/01 01:19:58;;;;;;;5.00;4.50;;;13.30;45.60;;;;;;10350381;28;20719;-69
2022/01/01 01:25:01;;;;;;;4.67;4.23;;;13.30;45.60;;;;;;10350388;28;20598;-70
2022/01/01 01:30:09;;;;;;;4.40;4.00;;;13.30;45.50;;;;;;10348498;28;20691;-70
2022/01/01 01:35:14;;;;;;;4.90;4.23;;;13.30;45.30;;;;;;10349235;28;20245;-69
2022/01/01 01:40:17;;;;;;;5.27;4.77;;;13.30;45.40;;;;;;10345637;28;20226;-69
2022/01/01 01:45:23;;;;;;;5.43;4.93;;;13.30;45.60;;;;;;10346056;28;20226;-69
2022/01/01 01:50:26;;;;;;;5.13;4.63;;;13.30;45.40;;;;;;10348090;28;20527;-69
2022/01/01 01:55:30;;;;;;;5.10;4.60;;;13.30;45.50;;;;;;10345262;28;20673;-69
2022/01/01 02:05:59;;;;;;;6.20;5.30;;;13.30;45.30;;;;;;10336059;28;20575;-69
2022/01/01 02:11:03;;;;;;;5.93;4.90;;;13.30;45.30;;;;;;10348073;28;20675;-70
2022/01/01 02:16:33;;;;;;;5.10;4.60;;;13.20;45.30;;;;;;10347678;28;20230;-69
2022/01/01 02:21:37;;;;;;;5.77;5.10;;;13.20;45.10;;;;;;10354780;28;20613;-71
2022/01/01 02:26:40;;;;;;;5.33;4.83;;;13.20;45.50;;;;;;10354186;28;20222;-71
2022/01/01 02:31:44;;;;;;;5.83;4.80;;;13.20;45.70;;;;;;10356427;28;20229;-71
2022/01/01 02:36:48;;;;;;;5.30;4.80;;;13.20;45.70;;;;;;10354075;28;20242;-71
2022/01/01 02:41:54;;;;;;;5.13;4.67;;;13.20;45.40;;;;;;10353702;28;20230;-71
2022/01/01 02:46:57;;;;;;;5.67;4.60;;;13.20;45.40;;;;;;10355067;28;20234;-71
2022/01/01 02:52:02;;;;;;;5.00;4.50;;;13.30;45.50;;;;;;10352946;28;20225;-71
2022/01/01 02:57:06;;;;;;;5.93;5.00;;;13.20;45.40;;;;;;10349426;28;20226;-71
2022/01/01 03:02:09;;;;;;;4.50;3.90;;;13.30;45.50;;;;;;10356804;28;20238;-71
2022/01/01 03:07:13;;;;;;;4.23;3.87;;;13.30;45.50;;;;;;10357143;28;20232;-71
2022/01/01 03:12:17;;;;;;;4.80;4.30;;;13.40;45.40;;;;;;10351773;28;20649;-71
2022/01/01 03:17:20;;;;;;;5.67;4.30;;;13.40;45.40;;;;;;10351769;28;20222;-71
2022/01/01 03:22:25;;;;;;;4.43;4.03;;;13.40;45.50;;;;;;10351830;28;20237;-71
2022/01/01 03:27:28;;;;;;;4.17;3.87;;;13.40;45.30;;;;;;10350530;28;20237;-71
2022/01/01 03:32:31;;;;;;;4.67;4.27;;;13.40;45.40;;;;;;10354280;28;20232;-71
2022/01/01 03:37:35;;;;;;;4.97;3.97;;;13.50;45.40;;;;;;10352206;28;20718;-71
2022/01/01 03:42:39;;;;;;;4.67;4.13;;;13.50;45.40;;;;;;10350661;28;20230;-71
2022/01/01 03:47:42;;;;;;;4.50;3.87;;;13.50;45.50;;;;;;10354220;28;20226;-71
2022/01/01 03:52:47;;;;;;;4.57;3.90;;;13.50;45.70;;;;;;10353213;28;20222;-71
2022/01/01 03:57:50;;;;;;;4.23;3.80;;;13.50;45.70;;;;;;10350356;28;20246;-71
2022/01/01 04:02:53;;;;;;;4.43;3.37;;;13.60;45.80;;;;;;10349948;28;20729;-71
2022/01/01 04:07:57;;;;;;;3.83;3.47;;;13.60;45.70;;;;;;10347654;28;20230;-71
2022/01/01 04:13:02;;;;;;;3.63;3.33;;;13.70;45.60;;;;;;10351708;28;20247;-71
2022/01/01 04:18:09;;;;;;;5.03;3.87;;;13.70;45.70;;;;;;10355844;28;20226;-71
2022/01/01 04:23:14;;;;;;;4.77;3.47;;;13.70;45.70;;;;;;10353094;28;20234;-71
2022/01/01 04:28:17;;;;;;;4.13;3.10;;;13.70;45.70;;;;;;10353757;28;20233;-71
2022/01/01 04:33:20;;;;;;;4.00;3.70;;;13.80;45.70;;;;;;10349608;28;20229;-71
2022/01/01 04:38:35;;;;;;;3.77;3.43;;;13.80;45.60;;;;;;10349510;28;20604;-71
2022/01/01 04:43:40;;;;;;;5.30;3.50;;;13.80;45.50;;;;;;10353392;28;21177;-71
2022/01/01 04:48:43;;;;;;;4.27;3.33;;;13.80;45.40;;;;;;10347158;28;20285;-71
2022/01/01 04:53:49;;;;;;;3.87;3.47;;;13.80;45.60;;;;;;10350158;28;20609;-71
2022/01/01 04:58:52;;;;;;;4.03;3.63;;;13.80;45.50;;;;;;10349794;28;20887;-71
2022/01/01 05:03:57;;;;;;;4.47;3.57;;;13.80;45.60;;;;;;10351015;28;20238;-71
2022/01/01 05:09:02;;;;;;;3.90;3.50;;;13.80;45.70;;;;;;10349450;28;20238;-71
2022/01/01 05:14:06;;;;;;;3.70;3.40;;;13.80;45.70;;;;;;10349174;28;20223;-71
2022/01/01 05:19:09;;;;;;;4.00;3.30;;;13.80;45.80;;;;;;10346440;28;20233;-71
2022/01/01 05:24:18;;;;;;;3.83;3.50;;;13.80;45.70;;;;;;10347551;28;20229;-71
2022/01/01 05:29:21;;;;;;;3.37;3.07;;;13.80;45.60;;;;;;10348019;28;20220;-71
2022/01/01 05:34:24;;;;;;;3.40;3.03;;;13.80;45.60;;;;;;10348310;28;20589;-71
2022/01/01 05:39:29;;;;;;;3.90;3.50;;;13.70;45.60;;;;;;10342423;28;20722;-71
2022/01/01 05:44:32;;;;;;;4.50;4.10;;;13.90;45.70;;;;;;10348932;28;20232;-71
2022/01/01 05:49:35;;;;;;;4.07;3.67;;;13.80;45.50;;;;;;10347803;28;20231;-71
2022/01/01 05:54:40;;;;;;;4.83;3.83;;;13.70;45.30;;;;;;10351702;28;20231;-71
2022/01/01 05:59:43;;;;;;;3.23;2.80;;;13.70;45.40;;;;;;10350960;28;20226;-71
2022/01/01 06:04:46;;;;;;;5.67;3.83;;;13.70;45.50;;;;;;10359040;28;20232;-71
2022/01/01 06:09:50;;;;;;;6.57;3.60;;;13.60;45.30;;;;;;10355055;28;20241;-71
2022/01/01 06:14:54;;;;;;;4.13;3.70;;;13.60;45.40;;;;;;10357887;28;20497;-71
2022/01/01 06:19:57;;;;;;;4.57;3.97;;;13.50;45.40;;;;;;10354123;28;20233;-71
2022/01/01 06:25:03;;;;;;;4.07;3.77;;;13.50;45.50;;;;;;10356836;28;20708;-71
2022/01/01 06:30:07;;;;;;;3.97;3.67;;;13.50;45.40;;;;;;10354068;28;20223;-71
2022/01/01 06:35:10;;;;;;;4.37;3.80;;;13.50;45.50;;;;;;10355240;28;20230;-71
2022/01/01 06:40:15;;;;;;;4.37;3.93;;;13.50;45.60;;;;;;10354942;28;20526;-71
2022/01/01 06:45:18;;;;;;;5.57;3.87;;;13.50;45.60;;;;;;10353494;28;20242;-71
2022/01/01 06:50:21;;;;;;;4.40;3.63;;;13.50;45.60;;;;;;10350978;28;21408;-71
2022/01/01 06:55:26;;;;;;;4.40;4.00;;;13.50;45.40;;;;;;10353945;28;20231;-71
2022/01/01 07:00:29;;;;;;;3.90;3.60;;;13.50;45.30;;;;;;10351540;28;20226;-71
2022/01/01 07:05:33;;;;;;;4.33;3.93;;;13.50;45.20;;;;;;10357264;28;20250;-71
2022/01/01 07:10:38;;;;;;;3.60;2.97;;;13.50;45.40;;;;;;10357184;28;20230;-71
2022/01/01 07:15:42;;;;;;;4.33;3.83;;;13.50;45.40;;;;;;10351646;28;20699;-71
2022/01/01 07:20:45;;;;;;;4.23;3.83;;;13.50;45.40;;;;;;10353279;28;20780;-71
2022/01/01 07:25:50;;;;;;;4.50;4.10;;;13.60;45.40;;;;;;10350832;28;20727;-71
2022/01/01 07:30:53;;;;;;;4.20;3.90;;;13.60;45.30;;;;;;10355039;28;20253;-71
2022/01/01 07:35:56;;;;;;;5.50;5.00;;;13.60;45.20;;;;;;10350203;28;20227;-71
2022/01/01 07:41:00;;;;;;;6.13;5.53;;;13.60;45.30;;;;;;10346497;28;20226;-71
2022/01/01 07:46:04;;;;;;;5.70;5.20;;;13.60;45.20;;;;;;10354270;28;20598;-71
2022/01/01 07:51:07;;;;;;;5.47;4.87;;;13.60;45.20;;;;;;10351140;28;20279;-71
2022/01/01 07:56:12;;;;;;;4.27;3.87;;;13.60;45.00;;;;;;10355577;28;20230;-71
2022/01/01 08:01:15;;;;;;;4.43;4.03;;;13.60;45.50;;;;;;10351884;28;20234;-71
2022/01/01 08:06:18;;;;;;;4.53;4.13;;;13.60;45.00;;;;;;10347778;28;20230;-71
2022/01/01 08:11:24;;;;;;;4.40;4.00;;;13.70;45.00;;;;;;10353584;28;20748;-71
2022/01/01 08:16:27;;;;;;;4.80;4.40;;;13.60;44.80;;;;;;10350963;28;20703;-71
2022/01/01 08:21:31;;;;;;;4.77;4.37;;;13.70;45.00;;;;;;10349537;28;20226;-69
2022/01/01 08:26:35;;;;;;;4.07;3.77;;;13.70;45.00;;;;;;10350995;28;20218;-69
2022/01/01 08:31:38;;;;;;;6.90;4.60;;;13.80;45.00;;;;;;10349391;28;20225;-69
2022/01/01 08:36:41;;;;;;;5.47;4.90;;;13.80;45.20;;;;;;10346465;28;20226;-69
2022/01/01 08:41:47;;;;;;;5.17;4.67;;;13.80;45.10;;;;;;10348883;28;20317;-69
2022/01/01 08:46:50;;;;;;;5.87;4.97;;;13.90;44.80;;;;;;10349206;28;20231;-69
2022/01/01 08:51:56;;;;;;;5.20;4.80;;;13.90;44.90;;;;;;10353255;28;20309;-69
2022/01/01 08:57:00;;;;;;;6.20;5.60;;;13.90;44.90;;;;;;10349033;28;20238;-69
2022/01/01 09:02:07;;;;;;;5.57;5.00;;;13.90;44.60;;;;;;10347015;28;20692;-70
2022/01/01 09:07:12;;;;;;;5.60;4.87;;;14.00;44.90;;;;;;10350022;28;20759;-69
2022/01/01 09:12:16;;;;;;;4.90;4.40;;;14.00;44.80;;;;;;10346833;28;20230;-69
2022/01/01 09:17:20;;;;;;;5.20;4.70;;;14.00;44.40;;;;;;10348131;28;20596;-69
2022/01/01 09:22:23;;;;;;;4.60;4.13;;;14.00;44.60;;;;;;10343831;28;20237;-69
2022/01/01 09:27:27;;;;;;;4.20;3.80;;;14.10;44.70;;;;;;10342061;28;20254;-69
2022/01/01 09:32:30;;;;;;;4.37;3.97;;;14.10;44.50;;;;;;10348951;28;20222;-69
2022/01/01 09:37:34;;;;;;;4.77;4.37;;;14.10;44.50;;;;;;10347986;28;20241;-69
2022/01/01 09:42:39;;;;;;;4.47;4.07;;;14.10;44.80;;;;;;10344952;28;20637;-69
2022/01/01 09:47:43;;;;;;;4.90;4.40;;;14.10;44.50;;;;;;10351722;28;20228;-69
2022/01/01 09:52:47;;;;;;;4.40;4.00;;;14.10;44.60;;;;;;10346204;28;20730;-69
2022/01/01 09:57:51;;;;;;;3.90;3.60;;;14.20;44.80;;;;;;10352842;28;20616;-69
2022/01/01 10:02:55;;;;;;;4.23;3.83;;;14.20;44.70;;;;;;10349130;28;20235;-69
2022/01/01 10:08:01;;;;;;;3.93;3.63;;;14.30;44.60;;;;;;10351794;28;20226;-69
2022/01/01 10:13:11;;;;;;;5.03;4.53;;;14.40;44.70;;;;;;10351000;28;20223;-70
2022/01/01 10:18:14;;;;;;;3.90;3.60;;;14.40;44.20;;;;;;10345545;28;20228;-69
2022/01/01 10:23:20;;;;;;;4.27;3.87;;;14.50;44.90;;;;;;10347610;28;20230;-70
2022/01/01 10:28:25;;;;;;;4.00;3.67;;;14.50;44.90;;;;;;10348314;28;20684;-69
2022/01/01 10:33:33;;;;;;;3.70;3.30;;;14.60;44.60;;;;;;10343887;28;20234;-69
2022/01/01 10:38:36;;;;;;;6.00;5.20;;;14.70;44.10;;;;;;10354612;28;20603;-69
2022/01/01 10:43:42;;;;;;;4.10;3.70;;;14.70;44.80;;;;;;10356904;28;20232;-69
2022/01/01 10:48:57;;;;;;;3.83;3.50;;;14.70;44.10;;;;;;10353600;28;20226;-69
2022/01/01 10:54:05;;;;;;;4.03;3.40;;;14.80;44.70;;;;;;10355929;28;20241;-69
2022/01/01 10:59:11;;;;;;;4.17;3.77;;;14.80;44.20;;;;;;10352468;28;20687;-69
2022/01/01 11:04:15;;;;;;;4.27;3.87;;;15.00;44.30;;;;;;10355213;28;20226;-69
2022/01/01 11:09:19;;;;;;;7.10;5.37;;;15.00;44.50;;;;;;10355203;28;20234;-69
2022/01/01 11:14:25;;;;;;;6.93;5.50;;;15.10;44.40;;;;;;10354697;28;20237;-69
2022/01/01 11:19:29;;;;;;;3.97;3.67;;;15.20;44.60;;;;;;10350821;28;20222;-69
2022/01/01 11:24:34;;;;;;;4.10;3.70;;;15.30;44.60;;;;;;10354780;28;20579;-69
2022/01/01 11:29:49;;;;;;;3.70;3.40;;;15.40;44.70;;;;;;10349499;28;20242;-69
2022/01/01 11:34:54;;;;;;;3.03;2.73;;;15.50;44.40;;;;;;10357353;28;20234;-69
2022/01/01 11:40:00;;;;;;;3.60;3.30;;;15.60;44.50;;;;;;10346413;28;20234;-69
2022/01/01 11:45:06;;;;;;;3.13;2.90;;;15.70;44.70;;;;;;10348997;28;20232;-70
2022/01/01 11:50:29;;;;;;;3.80;3.40;;;15.70;43.80;;;;;;10352817;28;20230;-69
2022/01/01 11:55:34;;;;;;;3.73;3.43;;;15.70;43.80;;;;;;10351580;28;20760;-69
2022/01/01 12:00:57;;;;;;;3.90;3.60;;;15.70;44.50;;;;;;10353903;28;20693;-69
2022/01/01 12:06:04;;;;;;;3.10;2.80;;;15.70;43.10;;;;;;10350876;28;20238;-70
2022/01/01 12:11:09;;;;;;;4.03;3.20;;;15.70;43.20;;;;;;10348454;28;20223;-69
2022/01/01 12:16:22;;;;;;;3.60;3.10;;;15.70;43.80;;;;;;10348005;28;20321;-69
2022/01/01 12:21:27;;;;;;;3.50;3.20;;;15.60;43.10;;;;;;10349750;28;20268;-69
2022/01/01 12:26:33;;;;;;;3.50;3.20;;;15.70;43.80;;;;;;10354189;28;20620;-69
2022/01/01 12:31:55;;;;;;;3.50;2.90;;;15.70;43.40;;;;;;10352037;28;20606;-69
2022/01/01 12:36:58;;;;;;;3.70;3.40;;;15.70;43.20;;;;;;10349151;28;20227;-69
2022/01/01 12:42:28;;;;;;;4.70;3.40;;;15.70;43.80;;;;;;10349992;28;20230;-69
2022/01/01 12:47:33;;;;;;;3.50;3.20;;;15.80;43.60;;;;;;10348384;28;20233;-69
2022/01/01 12:52:36;;;;;;;3.37;3.13;;;15.80;43.90;;;;;;10345105;28;20791;-69
2022/01/01 12:57:40;;;;;;;3.17;2.87;;;15.90;44.10;;;;;;10347859;28;20240;-69
2022/01/01 13:02:44;;;;;;;3.50;3.20;;;16.00;44.10;;;;;;10352141;28;20230;-69
2022/01/01 13:07:48;;;;;;;4.87;3.17;;;16.00;43.60;;;;;;10351009;28;20238;-69
2022/01/01 13:12:52;;;;;;;3.03;2.73;;;16.00;43.90;;;;;;10346725;28;20618;-70
2022/01/01 13:18:01;;;;;;;3.70;3.40;;;16.10;44.00;;;;;;10348532;28;20244;-69
2022/01/01 13:23:05;;;;;;;3.40;3.10;;;16.20;42.90;;;;;;10346411;28;20230;-70
2022/01/01 13:28:09;;;;;;;3.00;2.63;;;16.20;43.30;;;;;;10345447;28;20587;-69
2022/01/01 13:33:16;;;;;;;3.60;3.00;;;16.20;43.20;;;;;;10351663;28;20226;-70
2022/01/01 13:38:19;;;;;;;3.17;2.90;;;16.30;42.70;;;;;;10351140;28;20230;-69
2022/01/01 13:43:28;;;;;;;2.90;2.60;;;16.30;43.00;;;;;;10349941;28;20230;-69
2022/01/01 13:48:41;;;;;;;2.93;2.73;;;16.30;42.10;;;;;;10351432;28;20227;-69
2022/01/01 13:53:44;;;;;;;2.70;2.50;;;16.30;42.10;;;;;;10341630;28;20222;-69
2022/01/01 13:58:53;;;;;;;2.60;2.40;;;16.30;42.90;;;;;;10350221;28;20719;-70
2022/01/01 14:03:58;;;;;;;2.87;2.57;;;16.20;42.00;;;;;;10344405;28;20231;-69
2022/01/01 14:09:05;;;;;;;2.60;2.40;;;16.20;42.20;;;;;;10352668;28;20234;-70
2022/01/01 14:14:12;;;;;;;2.53;2.30;;;16.20;42.40;;;;;;10356514;28;20226;-69
2022/01/01 14:19:19;;;;;;;2.90;2.37;;;16.20;42.60;;;;;;10356626;28;20236;-71
2022/01/01 14:24:23;;;;;;;2.50;2.30;;;16.20;42.30;;;;;;10356979;28;20233;-71
2022/01/01 14:29:26;;;;;;;3.77;3.47;;;16.30;42.60;;;;;;10351657;28;20231;-71
2022/01/01 14:34:31;;;;;;;4.67;3.87;;;16.30;42.80;;;;;;10354627;28;20237;-70
2022/01/01 14:39:36;;;;;;;3.50;3.20;;;16.20;42.20;;;;;;10354718;28;20219;-71
2022/01/01 14:44:40;;;;;;;4.13;3.13;;;16.20;42.70;;;;;;10355392;28;20694;-71
2022/01/01 14:49:47;;;;;;;2.40;2.20;;;16.20;42.70;;;;;;10357335;28;20236;-71
2022/01/01 14:55:00;;;;;;;2.70;2.50;;;16.20;42.60;;;;;;10353796;28;20237;-71
2022/01/01 15:00:08;;;;;;;3.10;2.80;;;16.10;42.50;;;;;;10353608;28;20233;-71
2022/01/01 15:05:13;;;;;;;2.60;2.40;;;16.00;42.50;;;;;;10351777;28;20226;-71
2022/01/01 15:10:20;;;;;;;2.37;2.20;;;16.00;42.60;;;;;;10350782;28;20576;-71
2022/01/01 15:15:23;;;;;;;3.00;2.67;;;15.90;42.60;;;;;;10349200;28;20231;-71
2022/01/01 15:20:27;;;;;;;2.83;2.50;;;15.80;42.60;;;;;;10351877;28;20595;-71
2022/01/01 15:25:31;;;;;;;4.73;3.40;;;15.80;42.40;;;;;;10355705;28;21359;-71
2022/01/01 15:30:39;;;;;;;4.37;4.03;;;15.70;42.20;;;;;;10353043;28;20233;-72
2022/01/01 15:35:54;;;;;;;6.33;4.33;;;15.50;42.00;;;;;;10356196;28;20707;-71
2022/01/01 15:41:02;;;;;;;4.33;4.03;;;15.40;42.20;;;;;;10353723;28;20541;-71
2022/01/01 15:46:05;;;;;;;7.00;6.30;;;15.30;42.50;;;;;;10348123;28;20703;-71
2022/01/01 15:51:11;;;;;;;9.50;8.50;;;15.20;42.40;;;;;;10346326;28;20237;-71
2022/01/01 15:56:16;;;;;;;13.70;10.97;;;15.20;42.30;;;;;;10353468;28;20330;-71
2022/01/01 16:01:25;;;;;;;11.00;8.80;;;15.10;42.10;;;;;;10346970;28;20240;-71
2022/01/01 16:06:47;;;;;;;10.60;9.67;;;15.00;41.70;;;;;;10356224;28;20320;-71
2022/01/01 16:11:50;;;;;;;12.17;11.07;;;14.90;41.80;;;;;;10353603;28;20226;-71
2022/01/01 16:16:54;;;;;;;13.03;11.37;;;14.70;41.80;;;;;;10347776;28;20249;-71
2022/01/01 16:21:59;;;;;;;12.53;11.40;;;14.60;41.90;;;;;;10349436;28;20237;-71
2022/01/01 16:27:03;;;;;;;11.27;10.07;;;14.50;41.70;;;;;;10354104;28;20234;-71
2022/01/01 16:32:08;;;;;;;8.43;7.63;;;14.40;41.90;;;;;;10348559;28;20722;-71
2022/01/01 16:37:13;;;;;;;7.70;6.93;;;14.30;41.60;;;;;;10354808;28;20604;-71
2022/01/01 16:42:22;;;;;;;7.37;6.67;;;14.20;41.50;;;;;;10349066;28;20234;-71
2022/01/01 16:47:29;;;;;;;9.47;8.57;;;14.10;41.50;;;;;;10348493;28;20230;-71
2022/01/01 16:52:39;;;;;;;8.50;7.80;;;14.00;41.60;;;;;;10348441;28;20223;-71
2022/01/01 16:57:44;;;;;;;9.60;8.80;;;13.90;41.60;;;;;;10350412;28;20719;-71
2022/01/01 17:02:56;;;;;;;10.53;9.63;;;13.80;41.80;;;;;;10348840;28;20253;-71
2022/01/01 17:08:01;;;;;;;9.30;8.50;;;13.70;41.60;;;;;;10352638;28;20333;-72
2022/01/01 17:13:05;;;;;;;8.40;7.60;;;13.70;41.80;;;;;;10348236;28;20674;-71
2022/01/01 17:18:21;;;;;;;7.63;7.00;;;13.60;41.80;;;;;;10349995;28;20226;-71
2022/01/01 17:23:37;;;;;;;11.00;10.00;;;13.50;41.50;;;;;;10348581;28;20234;-71
2022/01/01 17:28:44;;;;;;;11.57;10.47;;;13.40;41.20;;;;;;10346217;28;20234;-71
2022/01/01 17:34:05;;;;;;;18.37;16.57;;;13.30;41.50;;;;;;10352104;28;20230;-71
2022/01/01 17:44:32;;;;;;;18.03;16.23;;;13.00;41.50;;;;;;10351635;28;20238;-71
2022/01/01 17:49:41;;;;;;;15.70;14.20;;;12.90;41.70;;;;;;10356278;28;20726;-71
2022/01/01 17:54:46;;;;;;;13.83;12.43;;;12.80;41.70;;;;;;10353680;28;20222;-71
2022/01/01 17:59:49;;;;;;;13.17;11.87;;;12.70;41.80;;;;;;10356503;28;20229;-71
2022/01/01 18:04:53;;;;;;;13.07;11.80;;;12.70;41.90;;;;;;10354792;28;20222;-71
2022/01/01 18:10:04;;;;;;;14.03;12.73;;;12.60;41.40;;;;;;10356871;28;20597;-71
2022/01/01 18:15:09;;;;;;;12.63;11.33;;;12.50;41.30;;;;;;10361161;28;20235;-71
2022/01/01 18:20:14;;;;;;;12.27;11.03;;;12.30;41.60;;;;;;10358239;28;20237;-71
2022/01/01 18:25:22;;;;;;;12.50;11.30;;;12.30;42.00;;;;;;10357492;28;20227;-71
2022/01/01 18:30:25;;;;;;;12.07;10.50;;;12.20;41.90;;;;;;10357750;28;20237;-71
2022/01/01 18:35:31;;;;;;;13.00;11.60;;;12.20;41.90;;;;;;10356666;28;20235;-71
2022/01/01 18:40:35;;;;;;;10.00;9.00;;;12.10;41.80;;;;;;10355367;28;20269;-71
2022/01/01 18:45:38;;;;;;;14.37;11.43;;;12.00;41.70;;;;;;10350301;28;20715;-71
2022/01/01 18:51:02;;;;;;;12.83;11.37;;;12.00;41.70;;;;;;10353395;28;20272;-71
2022/01/01 18:56:09;;;;;;;10.43;9.30;;;11.90;41.60;;;;;;10352902;28;20223;-72
2022/01/01 19:01:19;;;;;;;11.37;10.13;;;11.90;41.60;;;;;;10355018;28;20253;-71
2022/01/01 19:06:22;;;;;;;13.00;11.60;;;11.80;41.50;;;;;;10357230;28;20284;-71
2022/01/01 19:11:34;;;;;;;10.50;9.50;;;11.70;41.40;;;;;;10353647;28;20602;-71
2022/01/01 19:16:41;;;;;;;10.43;9.27;;;11.60;41.30;;;;;;10351396;28;20277;-71
2022/01/01 19:21:44;;;;;;;11.23;10.13;;;11.60;41.30;;;;;;10349648;28;20614;-71
2022/01/01 19:26:52;;;;;;;12.80;11.60;;;11.40;41.20;;;;;;10358317;28;20226;-71
2022/01/01 19:31:58;;;;;;;25.47;20.87;;;11.30;41.30;;;;;;10352045;28;20233;-71
2022/01/01 19:37:01;;;;;;;13.70;12.30;;;11.30;41.60;;;;;;10351150;28;20230;-71
2022/01/01 19:42:11;;;;;;;16.63;14.87;;;11.30;41.60;;;;;;10355435;28;20219;-71
2022/01/01 19:47:24;;;;;;;15.83;14.23;;;11.20;41.50;;;;;;10354364;28;20234;-71
2022/01/01 19:52:28;;;;;;;16.73;14.07;;;11.10;41.20;;;;;;10348017;28;20234;-71
2022/01/01 19:57:34;;;;;;;15.60;14.10;;;11.10;41.50;;;;;;10351155;28;20253;-71
2022/01/01 20:02:37;;;;;;;13.50;12.20;;;11.10;41.10;;;;;;10353531;28;20233;-71
2022/01/01 20:07:40;;;;;;;16.47;14.83;;;11.00;40.90;;;;;;10353736;28;20724;-71
2022/01/01 20:12:45;;;;;;;15.30;13.80;;;10.90;41.20;;;;;;10350766;28;20237;-71
2022/01/01 20:17:48;;;;;;;11.03;9.87;;;10.80;41.20;;;;;;10349936;28;20246;-70
2022/01/01 20:22:51;;;;;;;14.40;12.17;;;10.70;41.20;;;;;;10350601;28;20254;-70
2022/01/01 20:27:56;;;;;;;29.70;24.20;;;10.70;41.20;;;;;;10351489;28;20643;-70
2022/01/01 20:32:59;;;;;;;36.17;25.93;;;10.60;41.30;;;;;;10353993;28;20226;-70
2022/01/01 20:38:02;;;;;;;25.70;19.00;;;10.60;41.30;;;;;;10349300;28;20732;-70
2022/01/01 20:43:07;;;;;;;24.97;19.50;;;10.50;41.40;;;;;;10348158;28;20610;-70
2022/01/01 20:48:10;;;;;;;22.27;17.37;;;10.50;41.40;;;;;;10347090;28;20231;-70
2022/01/01 20:53:13;;;;;;;23.60;15.70;;;10.40;41.30;;;;;;10351435;28;20620;-70
2022/01/01 20:58:18;;;;;;;23.20;15.07;;;10.40;41.30;;;;;;10347514;28;20227;-70
2022/01/01 21:03:24;;;;;;;17.37;12.47;;;10.30;41.10;;;;;;10353158;28;20241;-70
2022/01/01 21:08:30;;;;;;;16.63;12.80;;;10.30;40.90;;;;;;10352674;28;20788;-70
2022/01/01 21:13:35;;;;;;;10.47;9.17;;;10.20;40.90;;;;;;10351184;28;20226;-70
2022/01/01 21:18:39;;;;;;;10.23;9.23;;;10.20;41.20;;;;;;10352530;28;20230;-70
2022/01/01 21:23:43;;;;;;;10.23;8.83;;;10.10;41.20;;;;;;10348005;28;20630;-69
2022/01/01 21:28:48;;;;;;;9.80;8.80;;;10.00;41.00;;;;;;10347977;28;20230;-70
2022/01/01 21:33:51;;;;;;;8.47;7.50;;;9.90;41.90;;;;;;10352486;28;20229;-70
2022/01/01 21:38:54;;;;;;;11.07;9.03;;;9.90;42.20;;;;;;10347521;28;20239;-70
2022/01/01 21:43:58;;;;;;;11.03;9.93;;;9.80;42.20;;;;;;10351502;28;20237;-70
2022/01/01 21:49:02;;;;;;;10.23;9.23;;;9.80;42.30;;;;;;10352723;28;20241;-73
2022/01/01 21:54:05;;;;;;;10.53;9.37;;;9.70;42.10;;;;;;10350817;28;20227;-70
2022/01/01 21:59:09;;;;;;;8.83;8.03;;;9.60;42.10;;;;;;10344403;28;20267;-70
2022/01/01 22:04:12;;;;;;;11.70;10.50;;;9.50;42.30;;;;;;10343432;28;20229;-70
2022/01/01 22:09:16;;;;;;;11.93;10.77;;;9.50;42.20;;;;;;10348484;28;20227;-70
2022/01/01 22:14:20;;;;;;;11.43;10.33;;;9.50;42.10;;;;;;10347117;28;20230;-70
2022/01/01 22:19:24;;;;;;;10.57;9.50;;;9.40;42.20;;;;;;10348122;28;20230;-70
2022/01/01 22:24:28;;;;;;;10.90;9.60;;;9.30;42.40;;;;;;10347705;28;20238;-70
2022/01/01 22:29:32;;;;;;;10.80;9.77;;;9.30;42.50;;;;;;10344558;28;20624;-70
2022/01/01 22:34:36;;;;;;;10.57;9.50;;;9.30;42.60;;;;;;10349316;28;20711;-70
2022/01/01 22:39:39;;;;;;;9.73;8.70;;;9.20;42.20;;;;;;10355282;28;20222;-70
2022/01/01 22:44:43;;;;;;;8.53;7.80;;;9.20;42.30;;;;;;10356791;28;20241;-70
2022/01/01 22:49:46;;;;;;;7.20;6.60;;;9.10;42.20;;;;;;10360064;28;20227;-70
2022/01/01 22:54:49;;;;;;;8.17;7.40;;;9.00;42.30;;;;;;10352453;28;21936;-70
2022/01/01 22:59:54;;;;;;;8.07;7.27;;;9.00;42.10;;;;;;10353357;28;20226;-70
2022/01/01 23:04:57;;;;;;;7.23;6.27;;;8.90;42.00;;;;;;10356019;28;20229;-70
2022/01/01 23:10:00;;;;;;;7.10;6.43;;;8.90;42.10;;;;;;10355612;28;20233;-70
2022/01/01 23:15:05;;;;;;;6.47;5.93;;;8.80;42.20;;;;;;10358841;28;20730;-70
2022/01/01 23:20:10;;;;;;;7.30;6.60;;;8.80;42.50;;;;;;10354077;28;20230;-71
2022/01/01 23:25:14;;;;;;;7.33;6.63;;;8.80;42.40;;;;;;10351322;28;20230;-70
2022/01/01 23:30:24;;;;;;;9.53;7.70;;;8.70;42.30;;;;;;10355192;28;20274;-70
2022/01/01 23:35:35;;;;;;;7.97;7.27;;;8.60;42.20;;;;;;10351844;28;20268;-71
2022/01/01 23:40:38;;;;;;;9.13;7.57;;;8.60;42.30;;;;;;10352615;28;20231;-71
2022/01/01 23:45:45;;;;;;;7.20;6.37;;;8.60;42.30;;;;;;10353262;28;20534;-70
2022/01/01 23:50:52;;;;;;;8.43;7.47;;;8.50;42.30;;;;;;10348841;28;20296;-70
2022/01/01 23:56:01;;;;;;;9.03;8.13;;;8.50;42.40;;;;;;10350797;28;20276;-70
